Time;durP1;ratioP1;P1;durP2;ratioP2;P2;SDS_P1;SDS_P2;PMS_P1;PMS_P2;Temp;Humidity;BMP_temperature;BMP_pressure;BME280_temperature;BME280_humidity;BME280_pressure;Samples;Min_cycle;Max_cycle;Signal;HPM_P1;HPM_P2
2022/07/09 00:00:25;;;;;;;;;;;;;;;16.83;59.09;100982.78;1086452;54;19947;-78
2022/07/09 00:01:27;;;;;;;;;;;;;;;16.77;59.25;100981.59;1086055;54;19962;-80
2022/07/09 00:02:30;;;;;;;;;;;;;;;16.78;59.00;100982.44;1085345;54;19938;-78
2022/07/09 00:03:32;;;;;;;;;;;;;;;16.76;59.02;100974.53;1085387;54;19939;-79
2022/07/09 00:04:35;;;;;;;;;;;;;;;16.78;58.84;100980.59;1084801;54;20062;-77
2022/07/09 00:05:36;;;;;;;;;;;;;;;16.85;58.88;100980.78;1084347;54;19997;-78
2022/07/09 00:06:40;;;;;;;;;;;;;;;16.85;58.94;100980.78;1084336;54;19939;-78
2022/07/09 00:07:41;;;;;;;;;;;;;;;16.85;58.73;100980.78;1084242;54;20477;-77
2022/07/09 00:08:45;;;;;;;;;;;;;;;16.88;58.99;100985.00;1084995;39;20465;-77
2022/07/09 00:09:46;;;;;;;;;;;;;;;16.89;59.12;100976.75;1084478;54;19998;-78
2022/07/09 00:10:50;;;;;;;;;;;;;;;16.86;59.35;100981.66;1084400;54;19970;-80
2022/07/09 00:11:53;;;;;;;;;;;;;;;16.82;59.57;100981.09;1084815;39;20380;-79
2022/07/09 00:12:57;;;;;;;;;;;;;;;16.82;59.40;100978.41;1083607;54;19966;-78
2022/07/09 00:13:58;;;;;;;;;;;;;;;16.78;59.73;100980.59;1083970;54;19939;-78
2022/07/09 00:15:02;;;;;;;;;;;;;;;16.76;59.71;100979.06;1084543;46;19947;-78
2022/07/09 00:16:04;;;;;;;;;;;;;;;16.72;59.18;100978.53;1083831;54;19969;-80
2022/07/09 00:17:08;;;;;;;;;;;;;;;16.67;59.19;100983.59;1083849;54;20494;-78
2022/07/09 00:18:09;;;;;;;;;;;;;;;16.58;59.38;100976.47;1084134;54;19946;-78
2022/07/09 00:19:14;;;;;;;;;;;;;;;16.62;59.25;100981.38;1084245;54;20002;-78
2022/07/09 00:20:15;;;;;;;;;;;;;;;16.57;60.12;100972.91;1084539;54;19947;-79
2022/07/09 00:21:18;;;;;;;;;;;;;;;16.52;60.38;100970.69;1084439;54;19946;-77
2022/07/09 00:22:20;;;;;;;;;;;;;;;16.59;60.32;100975.44;1084069;54;19947;-77
2022/07/09 00:23:23;;;;;;;;;;;;;;;16.56;60.74;100982.00;1084270;54;19959;-78
2022/07/09 00:24:24;;;;;;;;;;;;;;;16.52;60.90;100986.88;1084647;54;19938;-77
2022/07/09 00:25:28;;;;;;;;;;;;;;;16.49;60.95;100986.38;1084387;54;19939;-78
2022/07/09 00:26:29;;;;;;;;;;;;;;;16.49;61.13;100975.56;1084534;54;19946;-78
2022/07/09 00:27:36;;;;;;;;;;;;;;;16.46;61.15;100975.88;1084220;54;19950;-77
2022/07/09 00:28:37;;;;;;;;;;;;;;;16.43;61.21;100981.63;1084415;54;19953;-78
2022/07/09 00:29:40;;;;;;;;;;;;;;;16.42;61.07;100985.34;1084404;54;19946;-77
2022/07/09 00:30:44;;;;;;;;;;;;;;;16.38;61.16;100980.25;1084428;54;19946;-79
2022/07/09 00:31:45;;;;;;;;;;;;;;;16.40;61.33;100976.53;1084387;54;19953;-78
2022/07/09 00:32:49;;;;;;;;;;;;;;;16.39;61.27;100970.28;1084618;54;20429;-78
2022/07/09 00:33:50;;;;;;;;;;;;;;;16.28;62.01;100975.97;1084543;39;20361;-78
2022/07/09 00:34:55;;;;;;;;;;;;;;;16.27;62.01;100979.69;1084126;54;19946;-78
2022/07/09 00:35:56;;;;;;;;;;;;;;;16.23;62.36;100976.47;1083909;54;19947;-77
2022/07/09 00:37:01;;;;;;;;;;;;;;;16.21;62.13;100975.75;1084602;54;19948;-77
2022/07/09 00:38:02;;;;;;;;;;;;;;;16.19;62.06;100973.22;1084724;54;19941;-77
2022/07/09 00:39:06;;;;;;;;;;;;;;;16.13;62.42;100970.31;1085012;54;20033;-78
2022/07/09 00:40:07;;;;;;;;;;;;;;;16.13;62.52;100975.72;1085358;54;19947;-77
2022/07/09 00:41:12;;;;;;;;;;;;;;;16.12;62.25;100968.63;1084864;54;19951;-77
2022/07/09 00:42:13;;;;;;;;;;;;;;;16.13;62.69;100967.63;1084714;54;20042;-79
2022/07/09 00:43:21;;;;;;;;;;;;;;;16.09;62.40;100963.53;1084596;54;19951;-77
2022/07/09 00:44:22;;;;;;;;;;;;;;;16.14;62.14;100969.31;1084221;54;19946;-79
2022/07/09 00:45:26;;;;;;;;;;;;;;;16.05;61.93;100963.00;1084541;54;19977;-77
2022/07/09 00:46:29;;;;;;;;;;;;;;;15.99;62.08;100960.97;1085155;39;20309;-77
2022/07/09 00:47:30;;;;;;;;;;;;;;;16.04;62.31;100964.00;1084521;39;20337;-78
2022/07/09 00:48:34;;;;;;;;;;;;;;;16.02;62.61;100963.31;1084369;54;19970;-78
2022/07/09 00:49:38;;;;;;;;;;;;;;;15.95;63.01;100965.81;1084182;54;19947;-80
2022/07/09 00:50:43;;;;;;;;;;;;;;;15.99;62.96;100958.25;1084287;54;19938;-78
2022/07/09 00:51:45;;;;;;;;;;;;;;;15.94;62.98;100964.13;1083694;54;19947;-78
2022/07/09 00:52:50;;;;;;;;;;;;;;;15.95;62.95;100962.25;1083815;54;20039;-77
2022/07/09 00:53:51;;;;;;;;;;;;;;;15.90;63.10;100962.75;1083907;54;19939;-76
2022/07/09 00:54:55;;;;;;;;;;;;;;;15.94;62.92;100958.72;1084269;54;19951;-79
2022/07/09 00:55:56;;;;;;;;;;;;;;;15.95;62.79;100956.88;1084644;39;20467;-76
2022/07/09 00:57:00;;;;;;;;;;;;;;;15.94;62.84;100956.03;1084078;54;19938;-75
2022/07/09 00:58:02;;;;;;;;;;;;;;;15.90;62.84;100951.94;1084214;54;19946;-77
2022/07/09 00:59:12;;;;;;;;;;;;;;;15.94;62.45;100956.03;1083893;54;19949;-77
2022/07/09 01:00:14;;;;;;;;;;;;;;;15.93;62.55;100951.66;1083854;54;19954;-77
2022/07/09 01:01:17;;;;;;;;;;;;;;;15.85;63.04;100948.91;1084066;54;20429;-77
2022/07/09 01:02:21;;;;;;;;;;;;;;;15.84;63.01;100945.34;1084120;54;19969;-79
2022/07/09 01:03:25;;;;;;;;;;;;;;;15.86;62.72;100948.72;1084155;54;19950;-78
2022/07/09 01:04:26;;;;;;;;;;;;;;;15.88;62.90;100945.88;1084136;54;19974;-80
2022/07/09 01:05:35;;;;;;;;;;;;;;;15.88;62.67;100946.72;1084298;54;19962;-79
2022/07/09 01:06:36;;;;;;;;;;;;;;;15.86;63.03;100947.91;1084330;46;19973;-79
2022/07/09 01:07:40;;;;;;;;;;;;;;;15.89;63.05;100952.94;1084067;54;19962;-78
2022/07/09 01:08:41;;;;;;;;;;;;;;;15.89;62.80;100942.16;1084238;47;19973;-81
2022/07/09 01:09:44;;;;;;;;;;;;;;;15.88;63.08;100940.47;1083598;54;19975;-79
2022/07/09 01:10:46;;;;;;;;;;;;;;;15.86;62.98;100947.91;1083628;54;19951;-78
2022/07/09 03:17:17;;;;;;;;;;;;;;;15.49;63.01;100932.75;1087566;54;19934;-76
2022/07/09 03:18:18;;;;;;;;;;;;;;;15.49;63.03;100936.28;1088555;46;19951;-77
2022/07/09 03:19:22;;;;;;;;;;;;;;;15.49;62.82;100935.44;1088486;54;19945;-80
2022/07/09 03:20:23;;;;;;;;;;;;;;;15.49;63.22;100930.06;1089206;46;19950;-77
2022/07/09 03:21:27;;;;;;;;;;;;;;;15.50;63.16;100932.59;1088765;46;19934;-77
2022/07/09 03:22:28;;;;;;;;;;;;;;;15.52;62.76;100935.13;1088416;54;19927;-78
2022/07/09 03:23:32;;;;;;;;;;;;;;;15.52;63.00;100932.41;1091490;46;19949;-77
2022/07/09 03:24:33;;;;;;;;;;;;;;;15.52;63.17;100935.13;1090661;46;20011;-77
2022/07/09 03:25:37;;;;;;;;;;;;;;;15.52;63.34;100927.91;1088472;54;19955;-77
2022/07/09 03:26:39;;;;;;;;;;;;;;;15.52;63.30;100932.41;1088444;47;19995;-78
2022/07/09 03:27:42;;;;;;;;;;;;;;;15.51;63.46;100930.72;1090254;46;19938;-79
2022/07/09 03:28:46;;;;;;;;;;;;;;;15.52;63.09;100935.13;1088050;54;20276;-77
2022/07/09 03:29:47;;;;;;;;;;;;;;;15.52;63.28;100925.19;1087999;54;19946;-79
2022/07/09 03:30:51;;;;;;;;;;;;;;;15.53;63.13;100929.59;1088363;54;19978;-78
2022/07/09 03:31:52;;;;;;;;;;;;;;;15.55;62.85;100932.13;1088405;54;19926;-79
2022/07/09 03:32:59;;;;;;;;;;;;;;;15.51;63.54;100917.25;1088436;54;19967;-79
2022/07/09 03:34:00;;;;;;;;;;;;;;;15.51;63.56;100925.34;1088478;54;19946;-78
2022/07/09 03:35:04;;;;;;;;;;;;;;;15.50;63.58;100923.63;1088499;54;19938;-78
2022/07/09 03:36:09;;;;;;;;;;;;;;;15.53;63.47;100920.66;1088505;46;20257;-78
2022/07/09 03:37:10;;;;;;;;;;;;;;;15.53;63.39;100926.03;1089480;46;19982;-80
2022/07/09 03:38:14;;;;;;;;;;;;;;;15.40;63.96;100923.75;1088366;54;19949;-79
2022/07/09 03:39:15;;;;;;;;;;;;;;;15.25;64.82;100928.81;1088486;54;19942;-78
2022/07/09 03:40:19;;;;;;;;;;;;;;;15.11;65.44;100932.91;1088389;54;19942;-79
2022/07/09 03:41:22;;;;;;;;;;;;;;;15.05;66.18;100928.97;1091004;46;19950;-78
2022/07/09 03:42:24;;;;;;;;;;;;;;;15.00;66.23;100925.91;1089140;46;19969;-78
2022/07/09 03:43:27;;;;;;;;;;;;;;;15.01;66.31;100929.44;1089498;46;19934;-79
2022/07/09 03:44:28;;;;;;;;;;;;;;;14.92;66.94;100918.56;1088397;54;19927;-78
2022/07/09 03:45:32;;;;;;;;;;;;;;;14.87;67.24;100930.78;1088308;54;19942;-78
2022/07/09 03:46:34;;;;;;;;;;;;;;;14.82;67.66;100929.41;1088060;54;19943;-79
2022/07/09 03:47:37;;;;;;;;;;;;;;;14.73;67.61;100933.00;1087953;54;19942;-79
2022/07/09 03:48:41;;;;;;;;;;;;;;;14.72;67.95;100923.25;1088332;54;19942;-79
2022/07/09 03:49:45;;;;;;;;;;;;;;;14.66;67.81;100929.19;1093465;39;20459;-78
2022/07/09 03:50:46;;;;;;;;;;;;;;;14.64;67.93;100928.50;1088445;54;19949;-78
2022/07/09 03:51:50;;;;;;;;;;;;;;;14.55;68.55;100935.63;1088478;54;19927;-79
2022/07/09 03:52:51;;;;;;;;;;;;;;;14.56;68.18;100936.44;1088406;54;19927;-79
2022/07/09 03:53:55;;;;;;;;;;;;;;;14.55;68.47;100934.78;1088466;54;19943;-79
2022/07/09 03:54:56;;;;;;;;;;;;;;;14.46;68.51;100928.44;1088417;54;19966;-79
2022/07/09 03:55:59;;;;;;;;;;;;;;;14.48;68.58;100932.66;1089988;46;19946;-79
2022/07/09 03:57:01;;;;;;;;;;;;;;;14.42;68.76;100933.28;1088411;54;19949;-77
2022/07/09 03:58:05;;;;;;;;;;;;;;;14.39;68.84;100930.88;1088357;54;19943;-82
2022/07/09 03:59:06;;;;;;;;;;;;;;;14.32;69.15;100929.78;1088415;54;19954;-78
2022/07/09 04:00:11;;;;;;;;;;;;;;;14.31;69.10;100931.59;1088397;54;19939;-77
2022/07/09 04:01:12;;;;;;;;;;;;;;;14.34;69.01;100930.47;1088392;54;19942;-79
2022/07/09 04:02:16;;;;;;;;;;;;;;;14.40;68.50;100940.63;1088319;54;19942;-80
2022/07/09 04:03:17;;;;;;;;;;;;;;;14.32;68.79;100929.78;1090185;46;19950;-78
2022/07/09 04:04:23;;;;;;;;;;;;;;;14.30;68.76;100929.06;1088487;46;19949;-78
2022/07/09 04:05:24;;;;;;;;;;;;;;;14.25;69.28;100931.38;1087990;54;19942;-77
2022/07/09 04:06:28;;;;;;;;;;;;;;;14.25;69.37;100928.69;1088306;54;19938;-78
2022/07/09 04:07:30;;;;;;;;;;;;;;;14.23;69.41;100930.66;1088331;54;19938;-77
2022/07/09 04:08:33;;;;;;;;;;;;;;;14.24;69.51;100924.28;1088326;54;19949;-78
2022/07/09 04:09:35;;;;;;;;;;;;;;;14.18;69.28;100926.56;1094507;46;19986;-76
2022/07/09 04:10:38;;;;;;;;;;;;;;;14.19;69.69;100925.56;1088384;54;19939;-79
2022/07/09 04:11:40;;;;;;;;;;;;;;;14.14;69.89;100935.06;1088317;54;19954;-76
2022/07/09 04:12:43;;;;;;;;;;;;;;;14.12;70.02;100931.69;1088338;54;19943;-78
2022/07/09 04:13:44;;;;;;;;;;;;;;;14.06;69.99;100933.13;1088416;54;19942;-77
2022/07/09 04:14:48;;;;;;;;;;;;;;;14.02;70.39;100929.03;1088350;54;19943;-78
2022/07/09 04:15:49;;;;;;;;;;;;;;;14.08;70.28;100939.19;1090547;46;19949;-78
2022/07/09 04:16:53;;;;;;;;;;;;;;;14.11;70.06;100933.53;1088349;54;20007;-77
2022/07/09 04:17:54;;;;;;;;;;;;;;;14.07;70.26;100937.50;1088289;54;19923;-77
2022/07/09 04:18:58;;;;;;;;;;;;;;;14.06;70.60;100933.13;1088370;54;19951;-76
2022/07/09 04:20:02;;;;;;;;;;;;;;;14.02;70.75;100937.94;1088352;54;19942;-82
2022/07/09 04:21:06;;;;;;;;;;;;;;;14.02;70.84;100934.41;1089307;46;19950;-79
2022/07/09 04:22:07;;;;;;;;;;;;;;;14.05;70.93;100931.44;1087954;54;19943;-78
2022/07/09 04:23:11;;;;;;;;;;;;;;;14.13;70.26;100939.59;1088208;46;19949;-78
2022/07/09 04:24:15;;;;;;;;;;;;;;;14.07;70.59;100940.19;1089113;46;19934;-77
2022/07/09 04:25:21;;;;;;;;;;;;;;;14.11;70.41;100936.22;1088338;54;19946;-79
2022/07/09 04:26:23;;;;;;;;;;;;;;;14.10;70.59;100942.56;1088358;54;19942;-78
2022/07/09 04:27:27;;;;;;;;;;;;;;;14.11;69.94;100935.38;1088304;54;19954;-78
2022/07/09 04:28:28;;;;;;;;;;;;;;;14.06;70.17;100943.88;1088348;54;19939;-78
2022/07/09 04:29:32;;;;;;;;;;;;;;;14.08;69.94;100949.94;1088773;46;19949;-78
2022/07/09 04:30:33;;;;;;;;;;;;;;;14.05;69.87;100944.88;1088430;54;19939;-80
2022/07/09 04:31:37;;;;;;;;;;;;;;;14.04;69.83;100944.00;1088374;47;21145;-79
2022/07/09 04:32:38;;;;;;;;;;;;;;;14.08;69.43;100944.56;1088368;54;19961;-78
2022/07/09 04:33:42;;;;;;;;;;;;;;;14.14;69.30;100949.38;1088284;54;19939;-78
2022/07/09 04:34:43;;;;;;;;;;;;;;;14.15;69.24;100943.00;1088349;54;19943;-78
2022/07/09 04:35:49;;;;;;;;;;;;;;;14.10;69.32;100949.81;1088304;54;19923;-80
2022/07/09 04:36:51;;;;;;;;;;;;;;;14.13;69.29;100947.66;1089262;46;19946;-78
2022/07/09 04:37:54;;;;;;;;;;;;;;;14.12;69.24;100945.13;1088303;54;19990;-79
2022/07/09 04:38:56;;;;;;;;;;;;;;;14.17;69.16;100950.91;1088032;54;19949;-81
2022/07/09 04:40:00;;;;;;;;;;;;;;;14.17;69.23;100951.75;1087934;54;19942;-79
2022/07/09 04:41:01;;;;;;;;;;;;;;;14.17;68.88;100954.44;1087905;54;19946;-78
2022/07/09 04:42:05;;;;;;;;;;;;;;;14.16;68.61;100943.84;1088285;47;19927;-77
2022/07/09 04:43:06;;;;;;;;;;;;;;;14.18;68.68;100948.06;1088364;54;19937;-78
2022/07/09 04:44:11;;;;;;;;;;;;;;;14.22;68.41;100945.09;1088282;54;19942;-77
2022/07/09 04:45:12;;;;;;;;;;;;;;;14.22;68.41;100947.78;1088329;54;19927;-79
2022/07/09 04:46:16;;;;;;;;;;;;;;;14.23;68.26;100947.63;1088369;54;19942;-79
2022/07/09 04:47:17;;;;;;;;;;;;;;;14.30;68.32;100947.88;1088300;54;19965;-78
2022/07/09 04:48:21;;;;;;;;;;;;;;;14.34;68.33;100950.13;1088302;54;20825;-78
2022/07/09 04:49:28;;;;;;;;;;;;;;;14.37;68.04;100945.47;1088056;54;19926;-80
2022/07/09 04:50:32;;;;;;;;;;;;;;;14.35;68.14;100953.69;1088323;54;19966;-79
2022/07/09 04:51:36;;;;;;;;;;;;;;;14.33;68.07;100950.28;1088701;46;19945;-78
2022/07/09 04:52:40;;;;;;;;;;;;;;;14.37;68.00;100949.00;1089283;46;19958;-80
2022/07/09 04:53:41;;;;;;;;;;;;;;;14.39;67.88;100949.69;1089652;39;20714;-78
2022/07/09 04:54:45;;;;;;;;;;;;;;;14.39;67.79;100948.88;1088257;54;19945;-79
2022/07/09 04:55:46;;;;;;;;;;;;;;;14.37;67.75;100946.31;1088303;54;19973;-78
2022/07/09 04:56:50;;;;;;;;;;;;;;;14.37;67.76;100948.16;1087957;54;19942;-79
2022/07/09 04:57:51;;;;;;;;;;;;;;;14.37;67.86;100946.31;1087865;54;19943;-79
2022/07/09 04:58:56;;;;;;;;;;;;;;;14.38;67.71;100948.00;1087934;54;19950;-78
2022/07/09 04:59:57;;;;;;;;;;;;;;;14.42;67.90;100948.53;1087955;54;19927;-78
2022/07/09 05:01:02;;;;;;;;;;;;;;;14.47;67.30;100943.59;1088321;54;19942;-79
2022/07/09 05:02:04;;;;;;;;;;;;;;;14.49;67.17;100937.06;1088276;54;19939;-79
2022/07/09 05:03:09;;;;;;;;;;;;;;;14.54;67.52;100938.47;1088312;54;19990;-79
2022/07/09 05:04:11;;;;;;;;;;;;;;;14.59;67.15;100938.84;1089657;46;19942;-80
2022/07/09 05:05:16;;;;;;;;;;;;;;;14.76;66.57;100934.56;1088312;54;19954;-82
2022/07/09 05:06:18;;;;;;;;;;;;;;;14.79;66.51;100929.72;1088366;54;19931;-82
2022/07/09 05:07:26;;;;;;;;;;;;;;;14.80;66.53;100941.31;1088259;54;19943;-80
2022/07/09 05:08:31;;;;;;;;;;;;;;;14.79;66.61;100940.47;1088191;54;19970;-80
2022/07/09 05:09:32;;;;;;;;;;;;;;;14.80;66.70;100934.09;1088052;54;19943;-80
2022/07/09 05:10:38;;;;;;;;;;;;;;;14.94;66.24;100926.50;1088126;54;19950;-79
2022/07/09 05:11:39;;;;;;;;;;;;;;;14.94;65.94;100923.78;1088365;46;19942;-79
2022/07/09 05:12:44;;;;;;;;;;;;;;;14.93;65.99;100931.03;1090634;46;19942;-82
2022/07/09 05:13:46;;;;;;;;;;;;;;;14.91;66.20;100932.19;1089850;46;19927;-79
2022/07/09 05:14:51;;;;;;;;;;;;;;;14.96;65.86;100929.88;1088814;46;19946;-82
2022/07/09 05:15:53;;;;;;;;;;;;;;;15.14;65.61;100938.00;1087867;54;19949;-80
2022/07/09 05:16:59;;;;;;;;;;;;;;;15.14;65.47;100932.59;1088113;46;20714;-81
2022/07/09 05:18:02;;;;;;;;;;;;;;;15.10;65.56;100926.69;1087774;54;20013;-82
2022/07/09 05:19:09;;;;;;;;;;;;;;;15.02;65.58;100937.34;1088201;54;19999;-81
2022/07/09 05:20:12;;;;;;;;;;;;;;;15.03;65.45;100930.13;1088299;54;19942;-85
2022/07/09 05:21:17;;;;;;;;;;;;;;;15.06;65.20;100936.06;1088475;54;19930;-82
2022/07/09 05:22:22;;;;;;;;;;;;;;;15.19;64.61;100932.16;1088914;46;19954;-82
2022/07/09 05:23:31;;;;;;;;;;;;;;;15.33;64.58;100936.16;1088557;54;19927;-81
2022/07/09 05:24:34;;;;;;;;;;;;;;;15.33;64.31;100931.59;1088505;54;19945;-84
2022/07/09 05:25:39;;;;;;;;;;;;;;;15.35;63.68;100929.59;1088311;54;19943;-79
2022/07/09 05:26:42;;;;;;;;;;;;;;;15.26;64.26;100934.03;1088322;54;19942;-84
2022/07/09 05:27:48;;;;;;;;;;;;;;;15.23;64.31;100933.50;1088303;54;19953;-79
2022/07/09 05:28:50;;;;;;;;;;;;;;;15.12;64.45;100935.44;1091339;46;19938;-81
2022/07/09 05:29:56;;;;;;;;;;;;;;;15.23;64.54;100936.19;1090338;46;19946;-81
2022/07/09 05:30:59;;;;;;;;;;;;;;;15.34;64.05;100937.84;1091089;46;19950;-82
2022/07/09 05:32:04;;;;;;;;;;;;;;;15.39;63.96;100935.50;1089216;39;20187;-82
2022/07/09 05:33:07;;;;;;;;;;;;;;;15.38;63.82;100940.06;1088199;54;19942;-80
2022/07/09 05:34:13;;;;;;;;;;;;;;;15.38;63.88;100934.69;1087957;54;19950;-82
2022/07/09 05:35:17;;;;;;;;;;;;;;;15.48;63.96;100929.19;1089324;46;19943;-82
2022/07/09 05:36:22;;;;;;;;;;;;;;;15.56;63.65;100917.66;1088009;54;19942;-82
2022/07/09 05:37:24;;;;;;;;;;;;;;;15.55;63.97;100930.25;1088250;54;19934;-80
2022/07/09 05:38:33;;;;;;;;;;;;;;;15.54;64.10;100925.88;1088255;54;20014;-83
2022/07/09 05:39:35;;;;;;;;;;;;;;;15.48;64.09;100939.97;1088350;54;19935;-82
2022/07/09 05:40:40;;;;;;;;;;;;;;;15.59;64.08;100931.66;1088291;54;19943;-84
2022/07/09 05:41:41;;;;;;;;;;;;;;;15.75;63.80;100938.16;1088234;54;19966;-81
2022/07/09 05:42:46;;;;;;;;;;;;;;;15.75;63.39;100925.53;1088222;54;19923;-82
2022/07/09 05:43:49;;;;;;;;;;;;;;;15.77;63.61;100935.34;1088320;54;19942;-83
2022/07/09 05:44:56;;;;;;;;;;;;;;;15.84;63.35;100933.72;1088281;54;21096;-82
2022/07/09 05:45:59;;;;;;;;;;;;;;;15.88;62.87;100927.00;1088260;54;19938;-80
2022/07/09 05:47:04;;;;;;;;;;;;;;;15.84;62.81;100929.16;1090443;46;19949;-82
2022/07/09 05:48:05;;;;;;;;;;;;;;;15.92;62.81;100927.53;1088205;54;19942;-83
2022/07/09 05:49:10;;;;;;;;;;;;;;;15.83;62.65;100923.91;1088282;54;19938;-82
2022/07/09 05:50:13;;;;;;;;;;;;;;;15.86;62.54;100915.53;1088337;46;19985;-82
2022/07/09 05:51:19;;;;;;;;;;;;;;;16.03;62.18;100922.72;1088236;54;19943;-80
2022/07/09 05:52:22;;;;;;;;;;;;;;;16.04;62.11;100929.81;1087838;54;19956;-80
2022/07/09 05:53:28;;;;;;;;;;;;;;;16.00;62.26;100923.03;1089853;39;20493;-81
2022/07/09 05:54:34;;;;;;;;;;;;;;;15.99;62.10;100924.03;1088162;54;19938;-80
2022/07/09 05:55:38;;;;;;;;;;;;;;;16.06;62.02;100927.78;1088277;54;19965;-80
2022/07/09 05:56:41;;;;;;;;;;;;;;;16.05;61.67;100923.41;1089795;47;20013;-81
2022/07/09 05:57:46;;;;;;;;;;;;;;;16.16;61.92;100924.13;1088198;54;19957;-81
2022/07/09 05:58:48;;;;;;;;;;;;;;;16.15;61.29;100917.91;1088282;54;19926;-81
2022/07/09 05:59:53;;;;;;;;;;;;;;;16.12;61.57;100925.47;1088194;54;19923;-80
2022/07/09 06:00:55;;;;;;;;;;;;;;;16.25;61.43;100925.03;1088160;54;19942;-81
2022/07/09 06:02:02;;;;;;;;;;;;;;;16.18;61.53;100911.34;1088155;54;19946;-81
2022/07/09 06:03:05;;;;;;;;;;;;;;;16.27;61.73;100918.47;1089186;46;19950;-79
2022/07/09 06:04:09;;;;;;;;;;;;;;;16.38;61.08;100915.47;1091678;46;19950;-86
2022/07/09 06:05:12;;;;;;;;;;;;;;;16.40;61.05;100922.56;1088603;54;19943;-86
2022/07/09 06:06:17;;;;;;;;;;;;;;;16.46;61.00;100916.53;1088391;54;19927;-86
2022/07/09 06:07:19;;;;;;;;;;;;;;;16.49;60.72;100913.50;1088318;54;19935;-85
2022/07/09 06:08:25;;;;;;;;;;;;;;;16.51;61.02;100911.50;1088358;54;19941;-84
2022/07/09 06:09:27;;;;;;;;;;;;;;;16.62;60.62;100916.59;1087869;54;19967;-84
2022/07/09 06:10:34;;;;;;;;;;;;;;;16.52;60.69;100905.94;1087864;54;19927;-82
2022/07/09 06:11:36;;;;;;;;;;;;;;;16.65;60.60;100912.72;1088540;47;19942;-85
2022/07/09 06:12:41;;;;;;;;;;;;;;;16.67;60.56;100914.25;1090270;47;19943;-83
2022/07/09 06:13:43;;;;;;;;;;;;;;;16.77;60.51;100908.69;1096141;47;19943;-82
2022/07/09 06:14:48;;;;;;;;;;;;;;;16.89;60.15;100909.25;1088234;54;19927;-83
2022/07/09 06:15:51;;;;;;;;;;;;;;;16.98;59.84;100908.28;1090635;47;19939;-84
2022/07/09 06:16:55;;;;;;;;;;;;;;;17.04;59.65;100909.50;1088219;54;19935;-83
2022/07/09 06:17:56;;;;;;;;;;;;;;;17.13;59.30;100899.53;1088932;47;19974;-83
2022/07/09 06:19:00;;;;;;;;;;;;;;;17.07;59.05;100908.31;1088397;54;19950;-85
2022/07/09 06:20:01;;;;;;;;;;;;;;;17.13;58.99;100905.78;1088492;54;19942;-86
2022/07/09 06:21:05;;;;;;;;;;;;;;;17.19;58.83;100904.28;1089972;47;19922;-82
2022/07/09 06:22:06;;;;;;;;;;;;;;;17.11;58.66;100905.09;1088291;54;19991;-84
2022/07/09 06:23:10;;;;;;;;;;;;;;;17.20;58.91;100903.22;1088377;54;19949;-84
2022/07/09 06:24:11;;;;;;;;;;;;;;;17.23;58.66;100907.47;1088376;54;19962;-84
2022/07/09 06:25:15;;;;;;;;;;;;;;;17.29;58.54;100904.94;1088334;54;19927;-84
2022/07/09 06:26:19;;;;;;;;;;;;;;;17.43;58.28;100905.28;1089858;47;19965;-84
2022/07/09 06:27:22;;;;;;;;;;;;;;;17.50;58.23;100910.88;1088104;54;19969;-83
2022/07/09 06:28:28;;;;;;;;;;;;;;;17.55;57.95;100903.94;1088095;54;19949;-84
2022/07/09 06:29:30;;;;;;;;;;;;;;;17.41;57.94;100907.31;1088171;54;19973;-86
2022/07/09 06:30:37;;;;;;;;;;;;;;;17.45;57.85;100903.25;1088314;54;19946;-83
2022/07/09 06:31:39;;;;;;;;;;;;;;;17.44;57.85;100905.09;1091624;39;20708;-83
2022/07/09 06:32:45;;;;;;;;;;;;;;;17.41;57.86;100905.47;1088173;54;19987;-83
2022/07/09 06:33:47;;;;;;;;;;;;;;;17.48;57.95;100905.59;1091088;47;19954;-84
2022/07/09 06:34:52;;;;;;;;;;;;;;;17.48;57.70;100911.00;1088223;54;20638;-83
2022/07/09 06:35:55;;;;;;;;;;;;;;;17.50;57.79;100903.59;1088266;54;19939;-83
2022/07/09 06:37:01;;;;;;;;;;;;;;;17.52;57.71;100900.72;1089584;47;19942;-83
2022/07/09 06:38:04;;;;;;;;;;;;;;;17.53;57.74;100905.97;1088159;54;19935;-84
2022/07/09 06:40:26;;;;;;;;;;;;;;;17.85;57.07;100896.13;1088265;54;19949;-84
2022/07/09 06:41:32;;;;;;;;;;;;;;;18.00;56.61;100896.28;1088201;54;19939;-83
2022/07/09 06:42:37;;;;;;;;;;;;;;;18.12;56.85;100894.06;1088106;54;19950;-83
2022/07/09 06:43:41;;;;;;;;;;;;;;;18.15;55.84;100891.00;1088187;54;19935;-83
2022/07/09 06:44:47;;;;;;;;;;;;;;;18.20;56.22;100891.31;1088046;54;19998;-83
2022/07/09 06:45:50;;;;;;;;;;;;;;;18.38;55.73;100895.66;1087849;54;19942;-83
2022/07/09 06:46:55;;;;;;;;;;;;;;;18.40;55.49;100888.22;1087795;54;19951;-82
2022/07/09 06:48:01;;;;;;;;;;;;;;;18.28;55.35;100895.84;1088066;54;19950;-87
2022/07/09 06:49:02;;;;;;;;;;;;;;;18.35;55.47;100890.59;1088290;54;19943;-84
2022/07/09 06:50:08;;;;;;;;;;;;;;;18.39;55.03;100891.94;1088076;54;19939;-85
2022/07/09 06:51:13;;;;;;;;;;;;;;;18.40;55.16;100894.44;1088182;54;19942;-83
2022/07/09 06:52:20;;;;;;;;;;;;;;;18.46;54.87;100895.63;1088076;54;19943;-83
2022/07/09 06:53:22;;;;;;;;;;;;;;;18.43;54.79;100893.25;1088071;54;19942;-82
2022/07/09 06:54:27;;;;;;;;;;;;;;;18.61;54.86;100889.47;1088211;54;19931;-82
2022/07/09 06:55:32;;;;;;;;;;;;;;;18.72;54.49;100886.34;1087847;54;20010;-81
2022/07/09 06:56:38;;;;;;;;;;;;;;;18.70;54.23;100893.81;1087567;54;20014;-82
2022/07/09 06:57:43;;;;;;;;;;;;;;;18.75;54.29;100890.56;1089348;47;19973;-81
2022/07/09 06:58:45;;;;;;;;;;;;;;;18.52;54.61;100891.34;1087833;54;19947;-82
2022/07/09 06:59:51;;;;;;;;;;;;;;;18.55;54.78;100891.84;1087823;54;19942;-82
2022/07/09 07:00:55;;;;;;;;;;;;;;;18.53;54.90;100896.59;1087780;54;19994;-84
2022/07/09 07:02:00;;;;;;;;;;;;;;;18.63;54.90;100892.81;1087803;54;19927;-84
2022/07/09 07:03:05;;;;;;;;;;;;;;;18.54;54.79;100889.31;1087814;54;19954;-83
2022/07/09 07:04:08;;;;;;;;;;;;;;;18.53;54.90;100898.47;1087779;54;19943;-83
2022/07/09 07:05:14;;;;;;;;;;;;;;;18.45;55.11;100888.50;1087791;54;19942;-83
2022/07/09 07:06:17;;;;;;;;;;;;;;;18.61;54.93;100894.88;1087746;54;19950;-82
2022/07/09 07:07:23;;;;;;;;;;;;;;;18.66;54.62;100893.31;1087759;54;20695;-83
2022/07/09 07:08:25;;;;;;;;;;;;;;;18.65;54.73;100891.66;1087701;54;20685;-83
2022/07/09 07:09:30;;;;;;;;;;;;;;;18.75;54.65;100891.41;1087686;54;19988;-83
2022/07/09 07:10:32;;;;;;;;;;;;;;;18.74;54.83;100888.88;1089517;47;19991;-85
2022/07/09 07:11:39;;;;;;;;;;;;;;;18.78;54.70;100890.19;1087732;54;19943;-79
2022/07/09 07:12:41;;;;;;;;;;;;;;;18.92;54.46;100892.16;1087652;54;19965;-79
2022/07/09 07:13:48;;;;;;;;;;;;;;;18.99;54.46;100893.16;1088042;54;19946;-78
2022/07/09 07:14:51;;;;;;;;;;;;;;;18.95;54.32;100897.22;1087987;54;19943;-78
2022/07/09 07:15:55;;;;;;;;;;;;;;;18.99;54.07;100895.00;1087943;54;19943;-77
2022/07/09 07:16:57;;;;;;;;;;;;;;;18.94;54.44;100894.72;1088061;54;19942;-77
2022/07/09 07:18:01;;;;;;;;;;;;;;;18.93;54.76;100893.03;1088303;54;19935;-77
2022/07/09 07:19:03;;;;;;;;;;;;;;;19.01;54.06;100892.97;1088410;54;19966;-77
2022/07/09 07:20:10;;;;;;;;;;;;;;;19.00;54.33;100896.69;1087958;54;20868;-77
2022/07/09 07:21:12;;;;;;;;;;;;;;;19.05;53.97;100886.19;1088025;54;19955;-77
2022/07/09 07:22:17;;;;;;;;;;;;;;;19.09;53.71;100892.91;1087903;54;19942;-78
2022/07/09 07:23:20;;;;;;;;;;;;;;;19.28;53.43;100893.44;1087964;54;19943;-77
2022/07/09 07:24:25;;;;;;;;;;;;;;;19.39;53.35;100886.75;1087945;54;19954;-77
2022/07/09 07:25:27;;;;;;;;;;;;;;;19.46;53.31;100893.97;1088003;54;19942;-77
2022/07/09 07:26:32;;;;;;;;;;;;;;;19.61;52.70;100890.47;1087947;54;19966;-78
2022/07/09 07:27:37;;;;;;;;;;;;;;;19.73;52.70;100893.56;1087957;54;19943;-77
2022/07/09 07:28:42;;;;;;;;;;;;;;;19.77;52.28;100884.88;1088074;54;19942;-85
2022/07/09 07:29:45;;;;;;;;;;;;;;;19.95;52.05;100883.69;1090509;39;21067;-85
2022/07/09 07:30:50;;;;;;;;;;;;;;;19.94;51.46;100887.44;1088103;54;19949;-85
2022/07/09 07:31:52;;;;;;;;;;;;;;;19.91;51.48;100888.66;1089094;46;19942;-84